sensor_id;sensor_type;location;lat;lon;timestamp;P1;durP1;ratioP1;P2;durP2;ratioP2
32094;SDS011;18608;53.688;10.748;2023-06-19T00:02:20;9.90;;;8.00;;
32094;SDS011;18608;53.688;10.748;2023-06-19T00:04:46;10.00;;;9.00;;
32094;SDS011;18608;53.688;10.748;2023-06-19T00:07:12;9.67;;;7.80;;
32094;SDS011;18608;53.688;10.748;2023-06-19T00:09:38;8.67;;;7.87;;
32094;SDS011;18608;53.688;10.748;2023-06-19T00:12:04;10.17;;;8.47;;
32094;SDS011;18608;53.688;10.748;2023-06-19T00:14:31;11.63;;;9.10;;
32094;SDS011;18608;53.688;10.748;2023-06-19T00:16:57;12.80;;;8.87;;
32094;SDS011;18608;53.688;10.748;2023-06-19T00:19:25;9.40;;;8.40;;
32094;SDS011;18608;53.688;10.748;2023-06-19T00:21:51;12.60;;;8.67;;
32094;SDS011;18608;53.688;10.748;2023-06-19T00:24:22;13.63;;;10.63;;
32094;SDS011;18608;53.688;10.748;2023-06-19T00:26:48;9.47;;;8.47;;
32094;SDS011;18608;53.688;10.748;2023-06-19T00:29:14;10.70;;;8.30;;
32094;SDS011;18608;53.688;10.748;2023-06-19T00:31:40;13.63;;;8.70;;
32094;SDS011;18608;53.688;10.748;2023-06-19T00:34:06;12.37;;;9.40;;
32094;SDS011;18608;53.688;10.748;2023-06-19T00:36:32;11.43;;;8.70;;
32094;SDS011;18608;53.688;10.748;2023-06-19T00:39:05;12.03;;;9.63;;
32094;SDS011;18608;53.688;10.748;2023-06-19T00:41:31;12.80;;;9.07;;
32094;SDS011;18608;53.688;10.748;2023-06-19T00:43:58;15.00;;;9.20;;
32094;SDS011;18608;53.688;10.748;2023-06-19T00:46:24;13.23;;;9.23;;
32094;SDS011;18608;53.688;10.748;2023-06-19T00:48:50;11.83;;;8.60;;
32094;SDS011;18608;53.688;10.748;2023-06-19T00:51:16;13.20;;;8.20;;
32094;SDS011;18608;53.688;10.748;2023-06-19T00:53:42;16.23;;;9.20;;
32094;SDS011;18608;53.688;10.748;2023-06-19T00:56:08;11.00;;;9.90;;
32094;SDS011;18608;53.688;10.748;2023-06-19T00:58:34;9.50;;;8.27;;
32094;SDS011;18608;53.688;10.748;2023-06-19T01:01:00;9.20;;;8.17;;
32094;SDS011;18608;53.688;10.748;2023-06-19T01:03:27;12.43;;;8.60;;
32094;SDS011;18608;53.688;10.748;2023-06-19T01:05:53;12.10;;;8.17;;
32094;SDS011;18608;53.688;10.748;2023-06-19T01:11:11;12.00;;;8.83;;
32094;SDS011;18608;53.688;10.748;2023-06-19T01:13:56;9.90;;;8.83;;
32094;SDS011;18608;53.688;10.748;2023-06-19T01:16:42;10.67;;;9.40;;
32094;SDS011;18608;53.688;10.748;2023-06-19T01:19:09;14.37;;;8.70;;
32094;SDS011;18608;53.688;10.748;2023-06-19T01:21:36;10.30;;;9.23;;
32094;SDS011;18608;53.688;10.748;2023-06-19T01:24:02;11.73;;;8.97;;
32094;SDS011;18608;53.688;10.748;2023-06-19T01:26:28;11.53;;;9.87;;
32094;SDS011;18608;53.688;10.748;2023-06-19T01:28:54;12.23;;;8.97;;
32094;SDS011;18608;53.688;10.748;2023-06-19T01:31:22;12.27;;;9.30;;
32094;SDS011;18608;53.688;10.748;2023-06-19T01:33:51;10.60;;;9.17;;
32094;SDS011;18608;53.688;10.748;2023-06-19T01:36:19;11.90;;;9.60;;
32094;SDS011;18608;53.688;10.748;2023-06-19T01:38:47;11.60;;;9.07;;
32094;SDS011;18608;53.688;10.748;2023-06-19T01:41:14;12.50;;;9.87;;
32094;SDS011;18608;53.688;10.748;2023-06-19T01:43:42;12.13;;;9.73;;
32094;SDS011;18608;53.688;10.748;2023-06-19T01:46:10;10.97;;;8.87;;
32094;SDS011;18608;53.688;10.748;2023-06-19T01:48:37;13.50;;;8.90;;
32094;SDS011;18608;53.688;10.748;2023-06-19T01:51:03;10.70;;;8.93;;
32094;SDS011;18608;53.688;10.748;2023-06-19T01:53:30;11.03;;;8.17;;
32094;SDS011;18608;53.688;10.748;2023-06-19T01:55:56;12.87;;;8.47;;
32094;SDS011;18608;53.688;10.748;2023-06-19T01:58:23;12.10;;;10.50;;
32094;SDS011;18608;53.688;10.748;2023-06-19T02:00:48;11.63;;;8.67;;
32094;SDS011;18608;53.688;10.748;2023-06-19T02:03:14;14.97;;;8.10;;
32094;SDS011;18608;53.688;10.748;2023-06-19T02:05:40;11.77;;;8.73;;
32094;SDS011;18608;53.688;10.748;2023-06-19T02:08:06;10.33;;;9.27;;
32094;SDS011;18608;53.688;10.748;2023-06-19T02:10:32;11.27;;;8.53;;
32094;SDS011;18608;53.688;10.748;2023-06-19T02:12:59;12.27;;;8.60;;
32094;SDS011;18608;53.688;10.748;2023-06-19T02:15:25;13.47;;;9.77;;
32094;SDS011;18608;53.688;10.748;2023-06-19T02:17:51;12.07;;;9.03;;
32094;SDS011;18608;53.688;10.748;2023-06-19T02:20:20;10.13;;;8.67;;
32094;SDS011;18608;53.688;10.748;2023-06-19T02:22:47;10.13;;;9.00;;
32094;SDS011;18608;53.688;10.748;2023-06-19T02:25:13;9.23;;;8.30;;
32094;SDS011;18608;53.688;10.748;2023-06-19T02:27:39;11.23;;;8.50;;
32094;SDS011;18608;53.688;10.748;2023-06-19T02:30:05;10.47;;;8.50;;
32094;SDS011;18608;53.688;10.748;2023-06-19T02:32:31;10.77;;;8.30;;
32094;SDS011;18608;53.688;10.748;2023-06-19T02:34:57;15.03;;;10.27;;
32094;SDS011;18608;53.688;10.748;2023-06-19T02:37:23;12.10;;;8.77;;
32094;SDS011;18608;53.688;10.748;2023-06-19T02:39:49;10.90;;;9.50;;
32094;SDS011;18608;53.688;10.748;2023-06-19T02:42:15;10.70;;;8.50;;
32094;SDS011;18608;53.688;10.748;2023-06-19T02:44:41;13.93;;;9.20;;
32094;SDS011;18608;53.688;10.748;2023-06-19T02:47:08;11.73;;;9.10;;
32094;SDS011;18608;53.688;10.748;2023-06-19T02:49:34;10.10;;;9.00;;
32094;SDS011;18608;53.688;10.748;2023-06-19T02:52:00;9.43;;;8.50;;
32094;SDS011;18608;53.688;10.748;2023-06-19T02:54:26;11.50;;;9.07;;
32094;SDS011;18608;53.688;10.748;2023-06-19T02:56:52;12.73;;;9.13;;
32094;SDS011;18608;53.688;10.748;2023-06-19T02:59:18;12.00;;;9.07;;
32094;SDS011;18608;53.688;10.748;2023-06-19T03:01:44;9.93;;;8.93;;
32094;SDS011;18608;53.688;10.748;2023-06-19T03:04:10;9.10;;;8.20;;
32094;SDS011;18608;53.688;10.748;2023-06-19T03:06:37;13.57;;;9.00;;
32094;SDS011;18608;53.688;10.748;2023-06-19T03:09:08;10.03;;;8.93;;
32094;SDS011;18608;53.688;10.748;2023-06-19T03:11:40;11.23;;;8.40;;
32094;SDS011;18608;53.688;10.748;2023-06-19T03:14:05;8.83;;;7.93;;
32094;SDS011;18608;53.688;10.748;2023-06-19T03:16:32;13.63;;;8.83;;
32094;SDS011;18608;53.688;10.748;2023-06-19T03:18:59;11.20;;;9.30;;
32094;SDS011;18608;53.688;10.748;2023-06-19T03:21:25;11.63;;;8.33;;
32094;SDS011;18608;53.688;10.748;2023-06-19T03:23:52;9.17;;;8.27;;
32094;SDS011;18608;53.688;10.748;2023-06-19T03:26:18;10.80;;;8.70;;
32094;SDS011;18608;53.688;10.748;2023-06-19T03:28:45;14.80;;;8.33;;
32094;SDS011;18608;53.688;10.748;2023-06-19T03:31:17;10.37;;;9.17;;
32094;SDS011;18608;53.688;10.748;2023-06-19T03:33:42;10.50;;;9.20;;
32094;SDS011;18608;53.688;10.748;2023-06-19T03:36:08;9.40;;;8.03;;
32094;SDS011;18608;53.688;10.748;2023-06-19T03:38:35;8.73;;;7.83;;
32094;SDS011;18608;53.688;10.748;2023-06-19T03:41:01;11.23;;;9.87;;
32094;SDS011;18608;53.688;10.748;2023-06-19T03:43:27;11.20;;;9.20;;
32094;SDS011;18608;53.688;10.748;2023-06-19T03:45:53;11.53;;;8.80;;
32094;SDS011;18608;53.688;10.748;2023-06-19T03:48:19;8.80;;;7.90;;
32094;SDS011;18608;53.688;10.748;2023-06-19T03:50:45;12.63;;;9.00;;
32094;SDS011;18608;53.688;10.748;2023-06-19T03:53:11;11.23;;;9.27;;
32094;SDS011;18608;53.688;10.748;2023-06-19T03:55:37;11.23;;;9.30;;
32094;SDS011;18608;53.688;10.748;2023-06-19T03:58:03;11.77;;;8.80;;
32094;SDS011;18608;53.688;10.748;2023-06-19T04:00:29;10.00;;;8.67;;
32094;SDS011;18608;53.688;10.748;2023-06-19T04:02:55;14.17;;;9.10;;
32094;SDS011;18608;53.688;10.748;2023-06-19T04:05:21;11.80;;;9.07;;
32094;SDS011;18608;53.688;10.748;2023-06-19T04:07:47;13.23;;;9.00;;
32094;SDS011;18608;53.688;10.748;2023-06-19T04:10:13;10.10;;;8.60;;
32094;SDS011;18608;53.688;10.748;2023-06-19T04:12:40;10.53;;;9.00;;
32094;SDS011;18608;53.688;10.748;2023-06-19T04:15:09;10.20;;;9.20;;
32094;SDS011;18608;53.688;10.748;2023-06-19T04:17:35;9.30;;;7.90;;
32094;SDS011;18608;53.688;10.748;2023-06-19T04:20:01;12.53;;;9.53;;
32094;SDS011;18608;53.688;10.748;2023-06-19T04:22:35;10.47;;;9.03;;
32094;SDS011;18608;53.688;10.748;2023-06-19T04:25:01;9.50;;;8.50;;
32094;SDS011;18608;53.688;10.748;2023-06-19T04:27:27;10.67;;;8.40;;
32094;SDS011;18608;53.688;10.748;2023-06-19T04:29:53;9.57;;;8.57;;
32094;SDS011;18608;53.688;10.748;2023-06-19T04:32:19;11.17;;;9.53;;
32094;SDS011;18608;53.688;10.748;2023-06-19T04:34:45;19.80;;;10.37;;
32094;SDS011;18608;53.688;10.748;2023-06-19T04:37:12;13.83;;;9.30;;
32094;SDS011;18608;53.688;10.748;2023-06-19T04:39:38;13.90;;;9.50;;
32094;SDS011;18608;53.688;10.748;2023-06-19T04:42:04;9.70;;;8.63;;
32094;SDS011;18608;53.688;10.748;2023-06-19T04:44:30;9.80;;;8.90;;
32094;SDS011;18608;53.688;10.748;2023-06-19T04:46:58;11.70;;;9.60;;
32094;SDS011;18608;53.688;10.748;2023-06-19T04:49:27;10.23;;;8.83;;
32094;SDS011;18608;53.688;10.748;2023-06-19T04:51:55;9.27;;;8.27;;
32094;SDS011;18608;53.688;10.748;2023-06-19T04:54:21;10.43;;;9.33;;
32094;SDS011;18608;53.688;10.748;2023-06-19T04:56:47;14.23;;;9.53;;
32094;SDS011;18608;53.688;10.748;2023-06-19T04:59:13;12.03;;;9.27;;
32094;SDS011;18608;53.688;10.748;2023-06-19T05:01:43;12.60;;;10.00;;
32094;SDS011;18608;53.688;10.748;2023-06-19T05:04:09;11.77;;;9.17;;
32094;SDS011;18608;53.688;10.748;2023-06-19T05:06:36;11.90;;;8.87;;
32094;SDS011;18608;53.688;10.748;2023-06-19T05:09:02;10.83;;;9.67;;
32094;SDS011;18608;53.688;10.748;2023-06-19T05:11:29;14.80;;;9.90;;
32094;SDS011;18608;53.688;10.748;2023-06-19T05:13:55;10.00;;;8.97;;
32094;SDS011;18608;53.688;10.748;2023-06-19T05:16:21;12.00;;;9.77;;
32094;SDS011;18608;53.688;10.748;2023-06-19T05:18:48;10.43;;;9.30;;
32094;SDS011;18608;53.688;10.748;2023-06-19T05:21:14;13.07;;;8.90;;
32094;SDS011;18608;53.688;10.748;2023-06-19T05:23:40;10.13;;;9.13;;
32094;SDS011;18608;53.688;10.748;2023-06-19T05:26:06;11.63;;;9.47;;
32094;SDS011;18608;53.688;10.748;2023-06-19T05:28:32;10.93;;;9.50;;
32094;SDS011;18608;53.688;10.748;2023-06-19T05:30:58;12.50;;;10.07;;
32094;SDS011;18608;53.688;10.748;2023-06-19T05:33:24;10.87;;;9.70;;
32094;SDS011;18608;53.688;10.748;2023-06-19T05:35:50;11.00;;;9.77;;
32094;SDS011;18608;53.688;10.748;2023-06-19T05:38:18;14.10;;;10.50;;
32094;SDS011;18608;53.688;10.748;2023-06-19T05:40:44;12.60;;;11.10;;
32094;SDS011;18608;53.688;10.748;2023-06-19T05:43:11;14.27;;;10.43;;
32094;SDS011;18608;53.688;10.748;2023-06-19T05:45:37;14.90;;;12.10;;
32094;SDS011;18608;53.688;10.748;2023-06-19T05:48:03;18.20;;;9.93;;
32094;SDS011;18608;53.688;10.748;2023-06-19T05:50:29;15.80;;;11.83;;
32094;SDS011;18608;53.688;10.748;2023-06-19T05:52:56;12.50;;;10.93;;
32094;SDS011;18608;53.688;10.748;2023-06-19T05:55:22;14.20;;;12.23;;
32094;SDS011;18608;53.688;10.748;2023-06-19T05:57:49;10.80;;;9.40;;
32094;SDS011;18608;53.688;10.748;2023-06-19T06:00:16;15.33;;;12.13;;
32094;SDS011;18608;53.688;10.748;2023-06-19T06:02:42;12.50;;;10.57;;
32094;SDS011;18608;53.688;10.748;2023-06-19T06:05:08;18.70;;;10.00;;
32094;SDS011;18608;53.688;10.748;2023-06-19T06:07:34;11.17;;;9.93;;
32094;SDS011;18608;53.688;10.748;2023-06-19T06:10:00;17.27;;;11.80;;
32094;SDS011;18608;53.688;10.748;2023-06-19T06:12:26;16.57;;;10.50;;
32094;SDS011;18608;53.688;10.748;2023-06-19T06:14:52;14.73;;;11.37;;
32094;SDS011;18608;53.688;10.748;2023-06-19T06:17:18;16.77;;;10.70;;
32094;SDS011;18608;53.688;10.748;2023-06-19T06:19:44;13.10;;;11.70;;
32094;SDS011;18608;53.688;10.748;2023-06-19T06:22:10;13.30;;;10.97;;
32094;SDS011;18608;53.688;10.748;2023-06-19T06:24:36;12.83;;;10.70;;
32094;SDS011;18608;53.688;10.748;2023-06-19T06:27:03;11.87;;;10.60;;
32094;SDS011;18608;53.688;10.748;2023-06-19T06:29:30;14.33;;;11.13;;
32094;SDS011;18608;53.688;10.748;2023-06-19T06:32:02;14.83;;;10.47;;
32094;SDS011;18608;53.688;10.748;2023-06-19T06:34:30;14.53;;;11.00;;
32094;SDS011;18608;53.688;10.748;2023-06-19T06:36:57;12.80;;;11.40;;
32094;SDS011;18608;53.688;10.748;2023-06-19T06:39:23;18.63;;;11.80;;
32094;SDS011;18608;53.688;10.748;2023-06-19T06:41:49;19.53;;;11.60;;
32094;SDS011;18608;53.688;10.748;2023-06-19T06:44:15;12.73;;;11.40;;
32094;SDS011;18608;53.688;10.748;2023-06-19T06:46:41;12.47;;;11.17;;
32094;SDS011;18608;53.688;10.748;2023-06-19T06:49:07;15.10;;;11.87;;
32094;SDS011;18608;53.688;10.748;2023-06-19T06:51:33;19.10;;;12.10;;
32094;SDS011;18608;53.688;10.748;2023-06-19T06:53:59;14.67;;;10.63;;
32094;SDS011;18608;53.688;10.748;2023-06-19T06:56:25;18.13;;;10.60;;
32094;SDS011;18608;53.688;10.748;2023-06-19T06:58:51;13.37;;;11.47;;
32094;SDS011;18608;53.688;10.748;2023-06-19T07:01:17;15.30;;;12.23;;
32094;SDS011;18608;53.688;10.748;2023-06-19T07:03:43;13.23;;;11.43;;
32094;SDS011;18608;53.688;10.748;2023-06-19T07:06:10;13.30;;;10.87;;
32094;SDS011;18608;53.688;10.748;2023-06-19T07:08:36;12.63;;;10.97;;
32094;SDS011;18608;53.688;10.748;2023-06-19T07:11:03;15.93;;;10.70;;
32094;SDS011;18608;53.688;10.748;2023-06-19T07:13:29;13.07;;;10.97;;
32094;SDS011;18608;53.688;10.748;2023-06-19T07:15:55;17.03;;;11.40;;
32094;SDS011;18608;53.688;10.748;2023-06-19T07:18:23;13.67;;;11.80;;
32094;SDS011;18608;53.688;10.748;2023-06-19T07:20:49;14.57;;;12.07;;
32094;SDS011;18608;53.688;10.748;2023-06-19T07:23:15;14.50;;;11.67;;
32094;SDS011;18608;53.688;10.748;2023-06-19T07:25:41;13.63;;;11.47;;
32094;SDS011;18608;53.688;10.748;2023-06-19T07:28:07;13.33;;;12.03;;
32094;SDS011;18608;53.688;10.748;2023-06-19T07:30:33;12.77;;;11.43;;
32094;SDS011;18608;53.688;10.748;2023-06-19T07:32:59;12.53;;;11.10;;
32094;SDS011;18608;53.688;10.748;2023-06-19T07:35:25;12.17;;;10.97;;
32094;SDS011;18608;53.688;10.748;2023-06-19T07:37:51;17.60;;;14.03;;
32094;SDS011;18608;53.688;10.748;2023-06-19T07:40:17;15.37;;;12.37;;
32094;SDS011;18608;53.688;10.748;2023-06-19T07:42:43;15.03;;;12.33;;
32094;SDS011;18608;53.688;10.748;2023-06-19T07:45:10;15.70;;;12.70;;
32094;SDS011;18608;53.688;10.748;2023-06-19T07:47:36;13.60;;;12.20;;
32094;SDS011;18608;53.688;10.748;2023-06-19T07:50:02;20.63;;;13.20;;
32094;SDS011;18608;53.688;10.748;2023-06-19T07:52:28;19.90;;;12.33;;
32094;SDS011;18608;53.688;10.748;2023-06-19T07:54:55;14.77;;;13.00;;
32094;SDS011;18608;53.688;10.748;2023-06-19T07:57:22;17.10;;;14.30;;
32094;SDS011;18608;53.688;10.748;2023-06-19T07:59:49;15.33;;;13.20;;
32094;SDS011;18608;53.688;10.748;2023-06-19T08:02:16;14.93;;;13.33;;
32094;SDS011;18608;53.688;10.748;2023-06-19T08:04:42;15.23;;;13.67;;
32094;SDS011;18608;53.688;10.748;2023-06-19T08:07:07;17.13;;;13.27;;
32094;SDS011;18608;53.688;10.748;2023-06-19T08:09:33;20.80;;;13.63;;
32094;SDS011;18608;53.688;10.748;2023-06-19T08:12:00;17.63;;;13.27;;
32094;SDS011;18608;53.688;10.748;2023-06-19T08:14:26;21.13;;;14.00;;
32094;SDS011;18608;53.688;10.748;2023-06-19T08:16:53;14.40;;;13.00;;
32094;SDS011;18608;53.688;10.748;2023-06-19T08:19:19;20.37;;;13.03;;
32094;SDS011;18608;53.688;10.748;2023-06-19T08:21:45;14.83;;;12.97;;
32094;SDS011;18608;53.688;10.748;2023-06-19T08:24:11;20.23;;;14.60;;
32094;SDS011;18608;53.688;10.748;2023-06-19T08:26:37;17.70;;;13.50;;
32094;SDS011;18608;53.688;10.748;2023-06-19T08:29:03;24.83;;;14.37;;
32094;SDS011;18608;53.688;10.748;2023-06-19T08:31:29;15.43;;;13.83;;
32094;SDS011;18608;53.688;10.748;2023-06-19T08:33:55;15.60;;;12.73;;
32094;SDS011;18608;53.688;10.748;2023-06-19T08:36:21;14.97;;;13.37;;
32094;SDS011;18608;53.688;10.748;2023-06-19T08:38:47;15.30;;;13.30;;
32094;SDS011;18608;53.688;10.748;2023-06-19T08:41:15;16.83;;;14.07;;
32094;SDS011;18608;53.688;10.748;2023-06-19T08:43:41;17.07;;;14.23;;
32094;SDS011;18608;53.688;10.748;2023-06-19T08:46:11;15.83;;;12.73;;
32094;SDS011;18608;53.688;10.748;2023-06-19T08:48:39;21.60;;;15.00;;
32094;SDS011;18608;53.688;10.748;2023-06-19T08:51:06;15.60;;;13.77;;
32094;SDS011;18608;53.688;10.748;2023-06-19T08:53:36;16.40;;;14.53;;
32094;SDS011;18608;53.688;10.748;2023-06-19T08:56:10;16.20;;;12.70;;
32094;SDS011;18608;53.688;10.748;2023-06-19T08:58:36;14.50;;;12.93;;
32094;SDS011;18608;53.688;10.748;2023-06-19T09:01:02;18.00;;;14.00;;
32094;SDS011;18608;53.688;10.748;2023-06-19T09:03:28;15.40;;;12.67;;
32094;SDS011;18608;53.688;10.748;2023-06-19T09:05:54;16.93;;;14.40;;
32094;SDS011;18608;53.688;10.748;2023-06-19T09:08:21;14.27;;;12.80;;
32094;SDS011;18608;53.688;10.748;2023-06-19T09:10:57;14.57;;;12.57;;
32094;SDS011;18608;53.688;10.748;2023-06-19T09:13:27;16.07;;;13.87;;
32094;SDS011;18608;53.688;10.748;2023-06-19T09:16:01;14.53;;;13.03;;
32094;SDS011;18608;53.688;10.748;2023-06-19T09:18:29;15.30;;;13.70;;
32094;SDS011;18608;53.688;10.748;2023-06-19T09:20:56;15.63;;;13.33;;
32094;SDS011;18608;53.688;10.748;2023-06-19T09:23:23;16.97;;;12.10;;
32094;SDS011;18608;53.688;10.748;2023-06-19T09:25:50;13.30;;;12.00;;
32094;SDS011;18608;53.688;10.748;2023-06-19T09:28:18;13.80;;;12.10;;
32094;SDS011;18608;53.688;10.748;2023-06-19T09:30:52;14.90;;;12.57;;
32094;SDS011;18608;53.688;10.748;2023-06-19T09:33:22;15.67;;;13.03;;
32094;SDS011;18608;53.688;10.748;2023-06-19T09:35:53;13.50;;;11.20;;
32094;SDS011;18608;53.688;10.748;2023-06-19T09:38:21;15.73;;;12.07;;
32094;SDS011;18608;53.688;10.748;2023-06-19T09:40:49;19.10;;;12.13;;
32094;SDS011;18608;53.688;10.748;2023-06-19T09:43:18;15.33;;;12.70;;
32094;SDS011;18608;53.688;10.748;2023-06-19T09:45:50;14.43;;;11.60;;
32094;SDS011;18608;53.688;10.748;2023-06-19T09:48:20;14.57;;;11.30;;
32094;SDS011;18608;53.688;10.748;2023-06-19T09:50:54;15.17;;;10.33;;
32094;SDS011;18608;53.688;10.748;2023-06-19T09:53:24;13.70;;;11.13;;
32094;SDS011;18608;53.688;10.748;2023-06-19T09:55:51;13.50;;;11.27;;
32094;SDS011;18608;53.688;10.748;2023-06-19T09:58:20;10.90;;;9.90;;
32094;SDS011;18608;53.688;10.748;2023-06-19T10:00:46;11.97;;;10.77;;
32094;SDS011;18608;53.688;10.748;2023-06-19T10:03:14;11.77;;;9.60;;
32094;SDS011;18608;53.688;10.748;2023-06-19T10:05:41;12.13;;;10.70;;
32094;SDS011;18608;53.688;10.748;2023-06-19T10:08:08;14.93;;;10.17;;
32094;SDS011;18608;53.688;10.748;2023-06-19T10:10:34;10.57;;;9.10;;
32094;SDS011;18608;53.688;10.748;2023-06-19T10:13:13;10.43;;;9.30;;
32094;SDS011;18608;53.688;10.748;2023-06-19T10:15:43;10.70;;;9.70;;
32094;SDS011;18608;53.688;10.748;2023-06-19T10:18:16;11.00;;;9.90;;
32094;SDS011;18608;53.688;10.748;2023-06-19T10:20:43;10.80;;;9.83;;
32094;SDS011;18608;53.688;10.748;2023-06-19T10:28:19;11.90;;;8.77;;
32094;SDS011;18608;53.688;10.748;2023-06-19T10:30:51;10.57;;;8.97;;
32094;SDS011;18608;53.688;10.748;2023-06-19T10:33:18;9.83;;;8.90;;
32094;SDS011;18608;53.688;10.748;2023-06-19T10:35:44;9.93;;;8.93;;
32094;SDS011;18608;53.688;10.748;2023-06-19T10:38:13;10.40;;;8.90;;
32094;SDS011;18608;53.688;10.748;2023-06-19T10:40:40;9.60;;;8.20;;
32094;SDS011;18608;53.688;10.748;2023-06-19T10:43:06;9.63;;;7.83;;
32094;SDS011;18608;53.688;10.748;2023-06-19T10:45:32;10.07;;;8.90;;
32094;SDS011;18608;53.688;10.748;2023-06-19T10:48:00;20.23;;;8.60;;
32094;SDS011;18608;53.688;10.748;2023-06-19T10:50:30;13.30;;;8.60;;
32094;SDS011;18608;53.688;10.748;2023-06-19T10:53:00;10.77;;;8.53;;
32094;SDS011;18608;53.688;10.748;2023-06-19T10:55:26;9.47;;;8.60;;
32094;SDS011;18608;53.688;10.748;2023-06-19T10:57:52;11.50;;;8.73;;
32094;SDS011;18608;53.688;10.748;2023-06-19T11:00:22;9.60;;;8.50;;
32094;SDS011;18608;53.688;10.748;2023-06-19T11:02:52;9.03;;;8.20;;
32094;SDS011;18608;53.688;10.748;2023-06-19T11:05:22;9.70;;;8.80;;
32094;SDS011;18608;53.688;10.748;2023-06-19T11:07:52;9.43;;;8.43;;
32094;SDS011;18608;53.688;10.748;2023-06-19T11:10:19;8.33;;;7.43;;
32094;SDS011;18608;53.688;10.748;2023-06-19T11:12:47;9.83;;;8.87;;
32094;SDS011;18608;53.688;10.748;2023-06-19T11:15:19;11.63;;;9.70;;
32094;SDS011;18608;53.688;10.748;2023-06-19T11:17:52;12.47;;;9.20;;
32094;SDS011;18608;53.688;10.748;2023-06-19T11:20:18;10.17;;;9.20;;
32094;SDS011;18608;53.688;10.748;2023-06-19T11:22:44;11.63;;;9.00;;
32094;SDS011;18608;53.688;10.748;2023-06-19T11:25:11;12.47;;;9.13;;
32094;SDS011;18608;53.688;10.748;2023-06-19T11:27:38;12.60;;;10.00;;
32094;SDS011;18608;53.688;10.748;2023-06-19T11:30:04;9.13;;;8.23;;
32094;SDS011;18608;53.688;10.748;2023-06-19T11:32:36;13.50;;;9.47;;
32094;SDS011;18608;53.688;10.748;2023-06-19T11:35:07;16.20;;;9.47;;
32094;SDS011;18608;53.688;10.748;2023-06-19T11:37:34;9.80;;;8.80;;
32094;SDS011;18608;53.688;10.748;2023-06-19T11:40:01;14.30;;;9.10;;
32094;SDS011;18608;53.688;10.748;2023-06-19T11:42:43;10.93;;;9.00;;
32094;SDS011;18608;53.688;10.748;2023-06-19T11:45:13;10.90;;;9.80;;
32094;SDS011;18608;53.688;10.748;2023-06-19T11:47:39;10.17;;;9.27;;
32094;SDS011;18608;53.688;10.748;2023-06-19T11:50:06;15.10;;;9.63;;
32094;SDS011;18608;53.688;10.748;2023-06-19T11:52:32;10.43;;;9.30;;
32094;SDS011;18608;53.688;10.748;2023-06-19T11:54:58;12.27;;;10.37;;
32094;SDS011;18608;53.688;10.748;2023-06-19T11:57:26;14.83;;;9.80;;
32094;SDS011;18608;53.688;10.748;2023-06-19T11:59:52;11.23;;;10.03;;
32094;SDS011;18608;53.688;10.748;2023-06-19T12:02:18;11.90;;;9.90;;
32094;SDS011;18608;53.688;10.748;2023-06-19T12:04:44;12.37;;;11.07;;
32094;SDS011;18608;53.688;10.748;2023-06-19T12:07:10;11.33;;;10.33;;
32094;SDS011;18608;53.688;10.748;2023-06-19T12:09:36;11.57;;;10.47;;
32094;SDS011;18608;53.688;10.748;2023-06-19T12:12:04;11.60;;;10.43;;
32094;SDS011;18608;53.688;10.748;2023-06-19T12:14:30;15.40;;;10.97;;
32094;SDS011;18608;53.688;10.748;2023-06-19T12:16:56;11.90;;;10.27;;
32094;SDS011;18608;53.688;10.748;2023-06-19T12:19:22;12.60;;;11.40;;
32094;SDS011;18608;53.688;10.748;2023-06-19T12:21:48;12.10;;;10.60;;
32094;SDS011;18608;53.688;10.748;2023-06-19T12:24:14;16.03;;;11.43;;
32094;SDS011;18608;53.688;10.748;2023-06-19T12:26:40;12.93;;;11.63;;
32094;SDS011;18608;53.688;10.748;2023-06-19T12:29:06;12.23;;;11.03;;
32094;SDS011;18608;53.688;10.748;2023-06-19T12:31:33;13.20;;;11.60;;
32094;SDS011;18608;53.688;10.748;2023-06-19T12:34:00;17.73;;;12.00;;
32094;SDS011;18608;53.688;10.748;2023-06-19T12:36:27;12.50;;;11.27;;
32094;SDS011;18608;53.688;10.748;2023-06-19T12:38:53;13.43;;;12.13;;
32094;SDS011;18608;53.688;10.748;2023-06-19T12:41:19;13.40;;;11.57;;
32094;SDS011;18608;53.688;10.748;2023-06-19T12:43:46;15.60;;;11.10;;
32094;SDS011;18608;53.688;10.748;2023-06-19T12:46:12;15.80;;;10.77;;
32094;SDS011;18608;53.688;10.748;2023-06-19T12:48:39;12.93;;;11.10;;
32094;SDS011;18608;53.688;10.748;2023-06-19T12:51:05;12.27;;;10.90;;
32094;SDS011;18608;53.688;10.748;2023-06-19T12:53:31;13.00;;;10.63;;
32094;SDS011;18608;53.688;10.748;2023-06-19T12:55:57;12.17;;;10.97;;
32094;SDS011;18608;53.688;10.748;2023-06-19T12:58:23;12.23;;;11.00;;
32094;SDS011;18608;53.688;10.748;2023-06-19T13:00:49;13.67;;;12.33;;
32094;SDS011;18608;53.688;10.748;2023-06-19T13:03:15;12.90;;;11.67;;
32094;SDS011;18608;53.688;10.748;2023-06-19T13:05:41;12.80;;;11.43;;
32094;SDS011;18608;53.688;10.748;2023-06-19T13:08:08;13.30;;;11.47;;
32094;SDS011;18608;53.688;10.748;2023-06-19T13:10:34;13.67;;;12.13;;
32094;SDS011;18608;53.688;10.748;2023-06-19T13:13:00;12.40;;;11.10;;
32094;SDS011;18608;53.688;10.748;2023-06-19T13:15:26;13.23;;;11.77;;
32094;SDS011;18608;53.688;10.748;2023-06-19T13:17:53;17.60;;;11.37;;
32094;SDS011;18608;53.688;10.748;2023-06-19T13:20:19;13.33;;;11.97;;
32094;SDS011;18608;53.688;10.748;2023-06-19T13:22:45;14.00;;;11.73;;
32094;SDS011;18608;53.688;10.748;2023-06-19T13:25:11;14.27;;;12.87;;
32094;SDS011;18608;53.688;10.748;2023-06-19T13:27:37;12.57;;;11.23;;
32094;SDS011;18608;53.688;10.748;2023-06-19T13:30:03;15.83;;;11.73;;
32094;SDS011;18608;53.688;10.748;2023-06-19T13:32:29;17.03;;;12.00;;
32094;SDS011;18608;53.688;10.748;2023-06-19T13:34:55;11.83;;;10.60;;
32094;SDS011;18608;53.688;10.748;2023-06-19T13:37:21;12.77;;;11.47;;
32094;SDS011;18608;53.688;10.748;2023-06-19T13:39:48;14.77;;;11.93;;
32094;SDS011;18608;53.688;10.748;2023-06-19T13:42:14;13.33;;;11.63;;
32094;SDS011;18608;53.688;10.748;2023-06-19T13:44:40;11.93;;;10.63;;
32094;SDS011;18608;53.688;10.748;2023-06-19T13:47:06;11.80;;;10.60;;
32094;SDS011;18608;53.688;10.748;2023-06-19T13:49:32;11.67;;;10.47;;
32094;SDS011;18608;53.688;10.748;2023-06-19T13:51:58;11.60;;;10.50;;
32094;SDS011;18608;53.688;10.748;2023-06-19T13:54:24;11.33;;;10.30;;
32094;SDS011;18608;53.688;10.748;2023-06-19T13:56:51;10.53;;;9.07;;
32094;SDS011;18608;53.688;10.748;2023-06-19T13:59:17;12.73;;;9.50;;
32094;SDS011;18608;53.688;10.748;2023-06-19T14:01:43;12.30;;;10.13;;
32094;SDS011;18608;53.688;10.748;2023-06-19T14:04:09;11.80;;;10.70;;
32094;SDS011;18608;53.688;10.748;2023-06-19T14:06:35;10.20;;;9.13;;
32094;SDS011;18608;53.688;10.748;2023-06-19T14:09:03;11.43;;;10.17;;
32094;SDS011;18608;53.688;10.748;2023-06-19T14:11:29;12.10;;;10.50;;
32094;SDS011;18608;53.688;10.748;2023-06-19T14:13:57;12.03;;;8.90;;
32094;SDS011;18608;53.688;10.748;2023-06-19T14:16:23;9.83;;;9.00;;
32094;SDS011;18608;53.688;10.748;2023-06-19T14:18:49;9.87;;;8.73;;
32094;SDS011;18608;53.688;10.748;2023-06-19T14:21:15;10.73;;;9.63;;
32094;SDS011;18608;53.688;10.748;2023-06-19T14:23:41;10.23;;;9.23;;